Time;durP1;ratioP1;P1;durP2;ratioP2;P2;SDS_P1;SDS_P2;PMS_P1;PMS_P2;Temp;Humidity;BMP_temperature;BMP_pressure;BME280_temperature;BME280_humidity;BME280_pressure;Samples;Min_cycle;Max_cycle;Signal;HPM_P1;HPM_P2
2022/03/26 06:00:06;;;;;;;30.03;26.77;;;8.60;96.00;;;;;;1708175;29;20553;-70
2022/03/26 06:00:58;;;;;;;29.85;26.70;;;8.60;95.90;;;;;;1708131;29;20276;-70
2022/03/26 06:01:50;;;;;;;34.83;27.33;;;8.60;95.90;;;;;;1708076;29;20205;-70
2022/03/26 06:02:42;;;;;;;31.63;27.35;;;8.60;95.90;;;;;;1708111;29;20206;-70
2022/03/26 06:03:33;;;;;;;31.25;27.85;;;8.60;95.90;;;;;;1707630;29;20199;-70
2022/03/26 06:04:24;;;;;;;32.35;27.35;;;8.70;96.00;;;;;;1708139;29;20724;-70
2022/03/26 06:05:17;;;;;;;32.13;27.13;;;8.70;96.00;;;;;;1707818;29;20246;-70
2022/03/26 06:06:07;;;;;;;32.97;26.70;;;8.70;96.10;;;;;;1701535;29;20618;-71
2022/03/26 06:06:59;;;;;;;31.13;27.30;;;8.70;96.10;;;;;;1701103;29;20278;-71
2022/03/26 06:07:50;;;;;;;31.90;27.58;;;8.80;96.00;;;;;;1701432;29;21130;-70
2022/03/26 06:08:42;;;;;;;29.75;26.55;;;8.80;96.00;;;;;;1701189;29;20199;-70
2022/03/26 06:09:33;;;;;;;32.60;26.85;;;8.80;96.10;;;;;;1701367;29;20255;-70
2022/03/26 06:10:25;;;;;;;28.27;25.10;;;8.80;96.20;;;;;;1701372;29;20231;-70
2022/03/26 06:11:16;;;;;;;30.08;26.60;;;8.80;96.20;;;;;;1701462;29;20455;-70
2022/03/26 06:12:08;;;;;;;30.00;26.73;;;8.80;96.10;;;;;;1701492;29;20285;-70
2022/03/26 06:12:59;;;;;;;30.55;26.38;;;8.90;96.20;;;;;;1701582;29;20211;-70
2022/03/26 06:13:51;;;;;;;31.47;26.50;;;8.90;96.10;;;;;;1703905;29;20698;-70
2022/03/26 06:14:42;;;;;;;29.92;26.58;;;8.90;96.10;;;;;;1707905;29;20211;-70
2022/03/26 06:15:35;;;;;;;30.03;25.70;;;9.00;96.10;;;;;;1705809;29;20198;-71
2022/03/26 06:16:26;;;;;;;32.50;26.88;;;9.00;96.10;;;;;;1701365;29;20203;-70
2022/03/26 06:17:17;;;;;;;34.30;26.37;;;9.00;96.10;;;;;;1701472;29;20207;-71
2022/03/26 06:18:09;;;;;;;29.70;26.48;;;9.00;96.10;;;;;;1701036;29;20507;-71
2022/03/26 06:19:01;;;;;;;27.45;24.45;;;9.10;95.90;;;;;;1701486;29;20199;-70
2022/03/26 06:19:52;;;;;;;29.05;25.67;;;9.10;95.90;;;;;;1701341;29;20218;-71
2022/03/26 06:20:43;;;;;;;29.60;26.40;;;9.10;95.90;;;;;;1701363;29;20205;-71
2022/03/26 06:21:34;;;;;;;30.42;26.10;;;9.20;95.90;;;;;;1701361;29;20223;-71
2022/03/26 06:22:26;;;;;;;30.47;26.77;;;9.20;95.90;;;;;;1701414;29;20282;-71
2022/03/26 06:23:16;;;;;;;31.58;26.00;;;9.20;95.90;;;;;;1701548;29;20230;-70
2022/03/26 06:24:08;;;;;;;31.30;26.13;;;9.20;95.90;;;;;;1706388;29;20229;-71
2022/03/26 06:24:59;;;;;;;26.33;23.63;;;9.30;95.80;;;;;;1708042;29;20244;-70
2022/03/26 06:25:51;;;;;;;31.87;27.07;;;9.30;95.80;;;;;;1707910;29;20198;-71
2022/03/26 06:26:44;;;;;;;30.65;25.33;;;9.30;95.80;;;;;;1708035;29;20238;-70
2022/03/26 06:27:35;;;;;;;30.98;26.65;;;9.40;95.80;;;;;;1707888;29;20202;-70
2022/03/26 06:28:26;;;;;;;33.50;28.40;;;9.40;95.80;;;;;;1707637;29;20206;-70
2022/03/26 06:29:18;;;;;;;33.17;26.60;;;9.40;95.60;;;;;;1707857;29;20222;-70
2022/03/26 06:30:10;;;;;;;31.67;27.65;;;9.50;95.60;;;;;;1707878;29;20203;-70
2022/03/26 06:31:04;;;;;;;30.50;27.10;;;9.50;95.60;;;;;;1708003;29;20206;-71
2022/03/26 06:31:54;;;;;;;32.33;26.02;;;9.50;95.80;;;;;;1707983;29;20206;-70
2022/03/26 06:32:46;;;;;;;31.63;26.20;;;9.50;95.70;;;;;;1708098;29;20281;-70
2022/03/26 06:33:37;;;;;;;29.80;23.85;;;9.60;95.60;;;;;;1706401;29;20209;-71
2022/03/26 06:34:29;;;;;;;32.17;27.13;;;9.60;95.60;;;;;;1701293;29;20203;-71
2022/03/26 06:35:20;;;;;;;31.25;26.52;;;9.60;95.70;;;;;;1701435;29;20447;-71
2022/03/26 06:36:13;;;;;;;31.15;27.75;;;9.70;95.50;;;;;;1701230;29;20229;-71
2022/03/26 06:37:04;;;;;;;30.45;26.95;;;9.70;95.40;;;;;;1701305;29;20210;-70
2022/03/26 06:37:56;;;;;;;30.75;25.83;;;9.70;95.30;;;;;;1701339;29;20667;-70
2022/03/26 06:38:47;;;;;;;30.05;26.15;;;9.80;95.30;;;;;;1700917;29;20246;-70
2022/03/26 06:39:38;;;;;;;33.93;27.37;;;9.90;95.30;;;;;;1705098;29;20202;-71
2022/03/26 06:40:29;;;;;;;30.23;26.92;;;9.90;95.30;;;;;;1707970;29;20206;-70
2022/03/26 06:41:21;;;;;;;30.93;26.70;;;10.00;95.10;;;;;;1707896;29;20198;-70
2022/03/26 06:42:12;;;;;;;31.52;26.27;;;10.00;95.00;;;;;;1707769;29;20461;-71
2022/03/26 06:43:04;;;;;;;32.20;26.90;;;10.10;95.00;;;;;;1707821;29;20206;-71
2022/03/26 06:43:54;;;;;;;31.67;26.88;;;10.20;95.10;;;;;;1704334;29;20215;-71
2022/03/26 06:44:46;;;;;;;32.70;27.27;;;10.20;95.10;;;;;;1701248;29;20203;-70
2022/03/26 06:45:37;;;;;;;33.20;27.08;;;10.30;95.00;;;;;;1701301;29;20210;-70
2022/03/26 06:46:31;;;;;;;32.00;28.40;;;10.40;94.80;;;;;;1701304;29;20213;-71
2022/03/26 06:47:21;;;;;;;31.30;27.48;;;10.40;94.70;;;;;;1701323;29;20215;-71
2022/03/26 06:48:13;;;;;;;34.80;27.97;;;10.50;94.60;;;;;;1700944;29;20215;-71
2022/03/26 06:49:06;;;;;;;35.83;28.92;;;10.60;94.30;;;;;;1701154;29;20257;-70
2022/03/26 06:49:57;;;;;;;37.65;29.08;;;10.70;93.90;;;;;;1701199;29;20671;-70
2022/03/26 06:50:49;;;;;;;36.95;29.58;;;10.80;93.70;;;;;;1701127;29;20258;-70
2022/03/26 06:51:40;;;;;;;35.05;29.63;;;10.80;93.70;;;;;;1701223;29;20203;-70
2022/03/26 06:52:31;;;;;;;34.90;28.50;;;10.90;93.60;;;;;;1701136;29;20226;-70
2022/03/26 06:53:23;;;;;;;30.37;26.43;;;11.00;93.40;;;;;;1701273;29;20238;-70
2022/03/26 06:54:13;;;;;;;39.72;28.45;;;11.00;93.50;;;;;;1706154;29;20663;-70
2022/03/26 06:55:06;;;;;;;31.77;25.80;;;11.10;93.30;;;;;;1707846;29;20206;-70
2022/03/26 06:55:57;;;;;;;34.70;27.55;;;11.20;93.00;;;;;;1707759;29;20206;-70
2022/03/26 06:56:49;;;;;;;35.37;28.67;;;11.20;93.10;;;;;;1707757;29;20228;-70
2022/03/26 06:57:41;;;;;;;33.85;26.83;;;11.30;92.80;;;;;;1707694;29;20466;-71
2022/03/26 06:58:33;;;;;;;33.95;27.05;;;11.40;92.30;;;;;;1707460;29;20202;-70
2022/03/26 06:59:23;;;;;;;32.80;28.08;;;11.40;92.10;;;;;;1707691;29;20218;-71
2022/03/26 07:00:16;;;;;;;31.53;25.93;;;11.50;92.00;;;;;;1707859;29;20237;-70
2022/03/26 07:01:07;;;;;;;32.22;27.25;;;11.50;91.90;;;;;;1707784;29;20244;-71
2022/03/26 07:02:00;;;;;;;32.30;27.37;;;11.60;91.90;;;;;;1707855;29;20464;-71
2022/03/26 07:02:51;;;;;;;31.88;27.27;;;11.70;91.90;;;;;;1707679;29;20230;-71
2022/03/26 07:03:42;;;;;;;35.77;27.70;;;11.70;91.70;;;;;;1706452;29;20194;-71
2022/03/26 07:04:33;;;;;;;32.78;28.15;;;11.80;91.60;;;;;;1701131;29;20208;-71
2022/03/26 07:05:25;;;;;;;34.37;28.50;;;11.80;91.70;;;;;;1701178;29;20416;-71
2022/03/26 07:06:19;;;;;;;37.00;27.65;;;11.90;91.50;;;;;;1701033;29;20489;-71
2022/03/26 07:07:13;;;;;;;31.27;27.05;;;11.90;91.40;;;;;;1701087;29;20254;-71
2022/03/26 07:08:04;;;;;;;34.33;27.85;;;12.00;91.20;;;;;;1700766;29;20630;-71
2022/03/26 07:08:56;;;;;;;35.22;28.02;;;12.10;91.00;;;;;;1701069;29;20660;-71
2022/03/26 07:09:46;;;;;;;34.15;28.85;;;12.20;90.50;;;;;;1700959;29;20210;-71
2022/03/26 07:10:41;;;;;;;32.73;27.17;;;12.20;90.40;;;;;;1700924;29;20237;-73
2022/03/26 07:11:32;;;;;;;37.22;28.45;;;12.30;90.30;;;;;;1701010;29;20206;-73
2022/03/26 07:12:23;;;;;;;36.33;28.17;;;12.30;90.50;;;;;;1700984;29;20229;-73
2022/03/26 07:13:16;;;;;;;33.53;27.92;;;12.40;90.40;;;;;;1701092;29;20231;-73
2022/03/26 07:14:07;;;;;;;36.95;27.83;;;12.50;90.20;;;;;;1700699;29;20246;-73
2022/03/26 07:14:58;;;;;;;32.07;27.30;;;12.50;90.30;;;;;;1701110;29;20199;-73
2022/03/26 07:15:49;;;;;;;34.40;28.90;;;12.60;90.00;;;;;;1701049;29;20447;-73
2022/03/26 07:16:41;;;;;;;34.40;27.50;;;12.60;89.60;;;;;;1701093;29;20207;-73
2022/03/26 07:17:34;;;;;;;32.50;27.88;;;12.70;89.30;;;;;;1701027;29;20214;-72
2022/03/26 07:18:25;;;;;;;33.33;26.42;;;12.70;89.30;;;;;;1700752;29;20472;-73
2022/03/26 07:19:16;;;;;;;34.50;27.40;;;12.80;89.10;;;;;;1700903;29;20261;-73
2022/03/26 07:20:09;;;;;;;32.37;26.97;;;12.90;88.90;;;;;;1701052;29;20215;-72
2022/03/26 07:21:00;;;;;;;34.95;27.63;;;12.90;88.40;;;;;;1701049;29;20204;-72
2022/03/26 07:21:52;;;;;;;33.85;27.02;;;13.00;88.20;;;;;;1700942;29;20290;-73
2022/03/26 07:22:43;;;;;;;33.20;27.83;;;13.00;88.30;;;;;;1700968;29;20215;-72
2022/03/26 07:23:35;;;;;;;32.60;27.38;;;13.10;88.30;;;;;;1700938;29;20208;-73
2022/03/26 07:24:26;;;;;;;33.35;27.58;;;13.10;89.10;;;;;;1707217;29;20586;-73
2022/03/26 07:25:18;;;;;;;33.83;26.93;;;13.20;89.30;;;;;;1707542;29;20548;-72
2022/03/26 07:26:09;;;;;;;33.25;27.35;;;13.30;89.10;;;;;;1707463;29;20250;-71
2022/03/26 07:27:00;;;;;;;32.83;27.23;;;13.30;88.50;;;;;;1707513;29;20198;-72
2022/03/26 07:27:51;;;;;;;33.05;27.45;;;13.40;88.10;;;;;;1707452;29;20233;-73
2022/03/26 07:28:43;;;;;;;34.80;28.67;;;13.50;88.20;;;;;;1707166;29;20206;-73
2022/03/26 07:29:35;;;;;;;42.30;28.40;;;13.50;88.20;;;;;;1707522;29;20484;-72
2022/03/26 07:30:27;;;;;;;35.20;28.48;;;13.60;88.10;;;;;;1704235;29;20637;-72
2022/03/26 07:31:17;;;;;;;36.85;26.75;;;13.70;87.80;;;;;;1705535;29;20203;-73
2022/03/26 07:32:10;;;;;;;32.33;27.20;;;13.70;87.50;;;;;;1707306;29;20202;-73
2022/03/26 07:33:02;;;;;;;32.92;26.60;;;13.80;87.40;;;;;;1705280;29;20210;-73
2022/03/26 07:33:54;;;;;;;31.45;27.50;;;13.80;87.40;;;;;;1700609;29;20317;-73
2022/03/26 07:34:45;;;;;;;35.95;27.15;;;13.90;87.40;;;;;;1704532;29;20230;-73
2022/03/26 07:35:37;;;;;;;32.17;27.40;;;13.90;87.40;;;;;;1702227;29;20267;-73
2022/03/26 07:36:27;;;;;;;38.67;29.58;;;14.00;87.50;;;;;;1704125;29;20199;-74
2022/03/26 07:37:19;;;;;;;32.73;28.77;;;14.00;86.90;;;;;;1701598;29;20199;-73
2022/03/26 07:38:10;;;;;;;30.63;27.10;;;14.10;86.80;;;;;;1700475;29;20443;-73
2022/03/26 07:39:02;;;;;;;33.13;28.15;;;14.10;86.50;;;;;;1700713;29;20199;-73
2022/03/26 07:39:53;;;;;;;33.50;26.95;;;14.10;86.30;;;;;;1700738;29;20219;-73
2022/03/26 07:40:45;;;;;;;38.00;27.87;;;14.20;86.50;;;;;;1704534;29;20241;-73
2022/03/26 07:41:35;;;;;;;33.35;27.35;;;14.20;86.40;;;;;;1705713;29;20210;-72
2022/03/26 07:42:27;;;;;;;31.50;26.30;;;14.30;86.40;;;;;;1700719;29;20301;-72
2022/03/26 07:43:18;;;;;;;32.42;28.45;;;14.30;86.10;;;;;;1700745;29;20195;-71
2022/03/26 07:44:10;;;;;;;35.90;28.30;;;14.40;86.10;;;;;;1703695;29;20217;-72
2022/03/26 07:45:00;;;;;;;33.15;27.13;;;14.40;86.00;;;;;;1703289;29;20203;-71
2022/03/26 07:45:52;;;;;;;30.37;26.97;;;14.50;86.10;;;;;;1700823;29;20207;-72
2022/03/26 07:46:43;;;;;;;32.13;26.50;;;14.60;86.00;;;;;;1706121;29;20206;-72
2022/03/26 07:47:35;;;;;;;33.72;27.17;;;14.60;85.80;;;;;;1707515;29;20618;-71
2022/03/26 07:48:28;;;;;;;31.48;26.80;;;14.70;85.60;;;;;;1706947;29;20205;-72
2022/03/26 07:49:19;;;;;;;34.40;28.23;;;14.80;85.50;;;;;;1707286;29;20566;-72
2022/03/26 07:50:11;;;;;;;33.00;26.80;;;14.90;85.40;;;;;;1707424;29;20228;-72
2022/03/26 07:51:03;;;;;;;33.10;26.80;;;14.90;84.80;;;;;;1707499;29;20705;-72
2022/03/26 07:51:54;;;;;;;31.40;26.80;;;15.00;84.50;;;;;;1706934;29;20202;-71
2022/03/26 07:52:45;;;;;;;35.20;27.63;;;15.10;84.40;;;;;;1707445;29;20234;-72
2022/03/26 07:53:37;;;;;;;37.63;27.90;;;15.10;84.60;;;;;;1707329;29;20209;-72
2022/03/26 07:54:28;;;;;;;31.67;27.00;;;15.20;84.50;;;;;;1707259;29;20234;-72
2022/03/26 07:55:20;;;;;;;32.10;27.10;;;15.30;84.60;;;;;;1707380;29;20205;-72
2022/03/26 07:56:11;;;;;;;31.13;26.80;;;15.30;84.50;;;;;;1707302;29;20533;-72
2022/03/26 07:57:03;;;;;;;34.07;26.60;;;15.40;84.30;;;;;;1707558;29;20202;-72
2022/03/26 07:57:54;;;;;;;35.65;27.65;;;15.50;84.20;;;;;;1707251;29;20241;-72
2022/03/26 07:58:47;;;;;;;34.13;25.90;;;15.50;84.10;;;;;;1707043;29;20212;-72
2022/03/26 07:59:37;;;;;;;32.45;27.40;;;15.60;83.90;;;;;;1707411;29;20249;-72
2022/03/26 08:00:29;;;;;;;30.97;26.20;;;15.70;82.90;;;;;;1707332;29;20270;-72
2022/03/26 08:01:20;;;;;;;35.25;28.08;;;15.70;82.90;;;;;;1705733;29;20709;-72
2022/03/26 08:02:12;;;;;;;33.53;27.63;;;15.80;83.10;;;;;;1707301;29;20678;-72
2022/03/26 08:03:03;;;;;;;31.20;26.95;;;15.80;83.10;;;;;;1707376;29;20965;-72
2022/03/26 08:03:56;;;;;;;36.20;26.80;;;15.90;82.90;;;;;;1707243;29;20876;-72
2022/03/26 08:04:46;;;;;;;32.47;28.10;;;16.00;82.60;;;;;;1707300;29;20249;-72
2022/03/26 08:05:38;;;;;;;34.70;28.77;;;16.10;82.50;;;;;;1707432;29;20202;-72
2022/03/26 08:06:29;;;;;;;37.50;29.23;;;16.10;82.20;;;;;;1707232;29;20635;-72
2022/03/26 08:07:21;;;;;;;34.93;28.30;;;16.20;82.10;;;;;;1707401;29;20571;-71
2022/03/26 08:08:12;;;;;;;33.20;28.23;;;16.30;82.20;;;;;;1706985;29;20213;-72
2022/03/26 08:09:04;;;;;;;32.00;26.10;;;16.40;82.10;;;;;;1707328;29;20218;-72
2022/03/26 08:09:54;;;;;;;32.70;26.67;;;16.50;81.40;;;;;;1707311;29;20207;-72
2022/03/26 08:10:46;;;;;;;30.90;26.67;;;16.50;80.80;;;;;;1707241;29;20229;-72
2022/03/26 08:11:37;;;;;;;37.25;27.55;;;16.60;80.50;;;;;;1703341;29;20210;-72
2022/03/26 08:12:29;;;;;;;34.87;27.00;;;16.60;80.10;;;;;;1700768;29;20207;-72
2022/03/26 08:13:19;;;;;;;32.80;26.35;;;16.70;79.80;;;;;;1700852;29;20214;-72
2022/03/26 08:14:11;;;;;;;35.43;27.43;;;16.70;79.30;;;;;;1700648;29;20303;-72
2022/03/26 08:15:02;;;;;;;34.78;27.10;;;16.80;78.90;;;;;;1700659;29;20235;-72
2022/03/26 08:15:54;;;;;;;34.50;28.05;;;16.80;78.70;;;;;;1700669;29;20231;-72
2022/03/26 08:16:45;;;;;;;33.72;26.80;;;16.90;78.90;;;;;;1700766;29;20210;-72
2022/03/26 08:17:37;;;;;;;39.33;27.90;;;17.00;78.70;;;;;;1700883;29;20203;-72
2022/03/26 08:18:27;;;;;;;35.15;26.38;;;17.00;78.40;;;;;;1700665;29;20707;-71
2022/03/26 08:19:20;;;;;;;37.07;27.43;;;17.10;77.80;;;;;;1700951;29;20480;-72
2022/03/26 08:20:11;;;;;;;32.10;24.73;;;17.10;77.60;;;;;;1701047;29;20290;-73
2022/03/26 08:21:03;;;;;;;38.27;27.00;;;17.20;78.60;;;;;;1701025;29;20249;-73
2022/03/26 08:21:54;;;;;;;35.15;25.63;;;17.30;78.50;;;;;;1705673;29;20289;-71
2022/03/26 08:22:46;;;;;;;34.37;27.47;;;17.30;78.40;;;;;;1707461;29;20202;-72
2022/03/26 08:23:36;;;;;;;34.45;26.50;;;17.40;78.00;;;;;;1708204;29;20207;-72
2022/03/26 08:24:28;;;;;;;34.27;25.47;;;17.50;77.50;;;;;;1708119;29;20281;-72
2022/03/26 08:26:29;;;;;;;37.85;28.00;;;17.60;76.90;;;;;;1706575;29;20198;-72
2022/03/26 08:27:22;;;;;;;36.10;27.15;;;17.70;76.50;;;;;;1707473;29;20690;-72
2022/03/26 08:28:14;;;;;;;32.50;26.35;;;17.80;76.30;;;;;;1707130;29;20688;-72
2022/03/26 08:29:05;;;;;;;38.05;27.70;;;17.80;75.90;;;;;;1707468;29;20618;-73
2022/03/26 08:29:57;;;;;;;35.10;27.90;;;17.90;76.10;;;;;;1707434;29;20543;-72
2022/03/26 08:30:48;;;;;;;34.10;26.67;;;18.00;75.90;;;;;;1706749;29;20202;-72
2022/03/26 08:31:39;;;;;;;37.63;27.63;;;18.00;76.20;;;;;;1707666;29;20222;-72
2022/03/26 08:32:30;;;;;;;33.78;27.10;;;18.10;76.10;;;;;;1703350;29;20202;-72
2022/03/26 08:33:22;;;;;;;35.23;27.30;;;18.20;75.90;;;;;;1701026;29;20205;-72
2022/03/26 08:34:13;;;;;;;36.17;27.40;;;18.30;76.00;;;;;;1700822;29;20265;-72
2022/03/26 08:35:06;;;;;;;35.70;28.63;;;18.30;75.60;;;;;;1700859;29;20659;-72
2022/03/26 08:35:57;;;;;;;40.88;27.77;;;18.40;75.40;;;;;;1700786;29;20203;-72
2022/03/26 08:36:49;;;;;;;36.30;25.60;;;18.50;75.30;;;;;;1700870;29;20210;-73
2022/03/26 08:37:40;;;;;;;36.00;27.30;;;18.50;75.30;;;;;;1701948;29;20257;-73
2022/03/26 08:38:32;;;;;;;34.55;27.90;;;18.60;75.40;;;;;;1706473;29;20297;-73
2022/03/26 08:39:23;;;;;;;33.00;27.42;;;18.70;76.30;;;;;;1705386;29;20221;-73
2022/03/26 08:40:14;;;;;;;33.70;26.20;;;18.90;76.10;;;;;;1700646;29;20241;-73
2022/03/26 08:41:05;;;;;;;34.25;26.55;;;19.00;76.40;;;;;;1700788;29;20237;-73
2022/03/26 08:41:57;;;;;;;34.60;26.70;;;19.20;76.30;;;;;;1700788;29;20662;-73
2022/03/26 08:42:48;;;;;;;30.90;26.67;;;19.30;75.90;;;;;;1700606;29;20478;-72
2022/03/26 08:43:40;;;;;;;29.30;25.20;;;19.50;75.60;;;;;;1704105;29;20198;-72
2022/03/26 08:44:30;;;;;;;34.17;27.67;;;19.60;75.20;;;;;;1707170;29;20234;-71
2022/03/26 08:45:22;;;;;;;29.70;25.30;;;19.60;74.90;;;;;;1707179;29;20195;-71
2022/03/26 08:46:13;;;;;;;29.40;26.17;;;19.80;75.00;;;;;;1707213;29;20206;-73
2022/03/26 08:47:06;;;;;;;34.20;27.17;;;19.80;74.90;;;;;;1707362;29;20293;-73
2022/03/26 08:47:57;;;;;;;29.15;25.27;;;19.90;74.40;;;;;;1707299;29;20489;-73
2022/03/26 08:48:49;;;;;;;38.60;27.73;;;20.00;74.60;;;;;;1706921;29;20229;-74
2022/03/26 08:49:44;;;;;;;36.78;27.50;;;20.10;74.40;;;;;;1707198;29;20202;-74
2022/03/26 08:50:37;;;;;;;32.42;27.45;;;20.20;74.00;;;;;;1707309;29;20203;-74
2022/03/26 08:51:28;;;;;;;34.03;27.10;;;20.30;73.40;;;;;;1707091;29;20230;-74
2022/03/26 08:52:21;;;;;;;33.27;27.10;;;20.40;73.20;;;;;;1707334;29;20209;-73
2022/03/26 08:53:12;;;;;;;35.28;27.10;;;20.40;73.30;;;;;;1707258;29;20219;-73
2022/03/26 08:54:04;;;;;;;34.20;26.45;;;20.50;72.90;;;;;;1707242;28;20322;-73
2022/03/26 08:54:55;;;;;;;34.72;27.40;;;20.50;72.70;;;;;;1707154;29;20236;-72
2022/03/26 08:55:47;;;;;;;31.60;25.80;;;20.60;72.40;;;;;;1707113;29;20230;-71
2022/03/26 08:56:39;;;;;;;33.78;28.67;;;20.70;72.40;;;;;;1707170;29;20210;-71
2022/03/26 08:57:30;;;;;;;37.65;27.77;;;20.70;72.10;;;;;;1701020;29;20753;-72
2022/03/26 08:58:22;;;;;;;34.90;27.57;;;20.80;71.70;;;;;;1700384;29;20892;-71
2022/03/26 08:59:13;;;;;;;31.83;26.35;;;20.80;71.50;;;;;;1700621;29;20451;-72
2022/03/26 09:00:06;;;;;;;33.47;28.17;;;20.90;71.60;;;;;;1700528;29;20207;-71
2022/03/26 09:00:57;;;;;;;38.53;27.13;;;21.00;71.60;;;;;;1700697;29;20235;-72
2022/03/26 09:01:49;;;;;;;33.20;27.40;;;21.10;71.60;;;;;;1700495;29;20195;-72
2022/03/26 09:02:40;;;;;;;35.53;28.33;;;21.20;71.90;;;;;;1700653;29;20825;-71
2022/03/26 09:03:32;;;;;;;31.48;26.60;;;21.30;71.50;;;;;;1700730;29;20572;-72
2022/03/26 09:04:22;;;;;;;30.88;26.55;;;21.50;71.30;;;;;;1704415;29;20250;-73
2022/03/26 09:05:15;;;;;;;32.00;27.13;;;22.00;71.00;;;;;;1707504;29;20199;-74
2022/03/26 09:06:08;;;;;;;31.73;26.38;;;23.00;70.00;;;;;;1704904;29;20207;-74
2022/03/26 09:06:59;;;;;;;30.02;26.58;;;24.30;68.50;;;;;;1701260;29;20255;-74
2022/03/26 09:07:50;;;;;;;35.58;27.52;;;25.60;67.60;;;;;;1700902;29;20269;-74
2022/03/26 09:08:42;;;;;;;33.03;27.45;;;27.00;65.20;;;;;;1700481;29;20223;-73
2022/03/26 09:09:33;;;;;;;33.00;28.48;;;28.20;63.20;;;;;;1700647;29;20258;-74
2022/03/26 09:10:25;;;;;;;35.00;27.03;;;29.10;61.70;;;;;;1700884;29;20207;-74
2022/03/26 09:11:16;;;;;;;33.58;26.27;;;29.50;60.90;;;;;;1700663;29;20210;-74
2022/03/26 09:12:09;;;;;;;35.93;28.17;;;29.80;60.20;;;;;;1700688;29;20214;-74
2022/03/26 09:13:01;;;;;;;31.77;26.95;;;30.30;58.80;;;;;;1700930;29;20291;-73
2022/03/26 09:13:53;;;;;;;33.08;28.35;;;31.20;58.00;;;;;;1700706;29;20230;-74
2022/03/26 09:14:44;;;;;;;35.58;29.02;;;32.10;56.80;;;;;;1699377;29;20593;-74
2022/03/26 09:15:36;;;;;;;30.63;27.33;;;33.00;55.90;;;;;;1703106;29;20628;-74
2022/03/26 09:16:27;;;;;;;30.58;27.20;;;33.90;55.00;;;;;;1706735;29;20486;-74
2022/03/26 09:17:21;;;;;;;29.23;26.03;;;34.70;53.90;;;;;;1703299;29;20199;-71
2022/03/26 09:18:11;;;;;;;32.55;29.05;;;35.60;52.90;;;;;;1702767;29;20455;-72
2022/03/26 09:19:03;;;;;;;35.47;28.17;;;36.30;52.00;;;;;;1702233;29;20388;-72
2022/03/26 09:19:54;;;;;;;31.38;27.95;;;37.00;51.00;;;;;;1700719;29;20285;-72
2022/03/26 09:20:46;;;;;;;30.43;27.23;;;37.70;50.30;;;;;;1702562;29;20195;-72
2022/03/26 09:21:38;;;;;;;33.80;28.20;;;38.30;49.60;;;;;;1701162;29;20204;-71
2022/03/26 09:22:30;;;;;;;30.15;26.92;;;38.90;48.90;;;;;;1701744;29;20262;-72
2022/03/26 09:23:22;;;;;;;30.67;27.40;;;39.40;48.30;;;;;;1701668;29;20206;-72
2022/03/26 09:24:15;;;;;;;30.07;26.90;;;40.00;47.80;;;;;;1701335;29;20230;-75
2022/03/26 09:25:08;;;;;;;30.67;27.57;;;40.40;47.10;;;;;;1701638;29;20458;-74
2022/03/26 09:26:04;;;;;;;33.03;28.70;;;40.80;46.20;;;;;;1701713;29;20497;-74
2022/03/26 09:26:54;;;;;;;37.63;28.43;;;41.10;45.60;;;;;;1700300;29;20549;-74
2022/03/26 09:27:47;;;;;;;31.87;28.20;;;41.40;45.10;;;;;;1702895;29;20466;-74
2022/03/26 09:28:37;;;;;;;30.80;27.53;;;41.60;44.80;;;;;;1701177;29;20198;-74
2022/03/26 09:29:29;;;;;;;30.27;27.13;;;41.80;44.40;;;;;;1702325;29;20450;-75
2022/03/26 09:30:20;;;;;;;32.20;27.60;;;42.00;44.10;;;;;;1701884;29;20214;-74
2022/03/26 09:31:12;;;;;;;30.37;27.10;;;41.90;43.90;;;;;;1702135;29;20521;-74
2022/03/26 09:32:03;;;;;;;32.57;28.77;;;41.20;44.00;;;;;;1700865;29;20333;-74
2022/03/26 09:32:55;;;;;;;30.90;27.90;;;40.20;44.40;;;;;;1701961;28;20546;-74
2022/03/26 09:33:47;;;;;;;33.17;29.70;;;39.20;44.90;;;;;;1701915;29;20988;-74
2022/03/26 09:34:38;;;;;;;29.70;26.63;;;38.00;45.50;;;;;;1703114;29;20828;-74
2022/03/26 09:35:29;;;;;;;31.30;28.20;;;36.90;46.30;;;;;;1701815;29;20493;-75
2022/03/26 09:36:21;;;;;;;31.43;28.27;;;35.80;47.00;;;;;;1702464;29;20472;-74
2022/03/26 09:37:13;;;;;;;29.63;26.17;;;34.80;47.70;;;;;;1702669;29;20237;-74
2022/03/26 09:38:05;;;;;;;29.93;26.80;;;33.90;48.60;;;;;;1704172;29;20935;-74
2022/03/26 09:38:57;;;;;;;32.73;29.23;;;33.00;49.40;;;;;;1701465;29;20485;-74
2022/03/26 09:39:48;;;;;;;31.83;28.73;;;32.30;49.60;;;;;;1701544;29;20458;-74
2022/03/26 09:40:43;;;;;;;33.53;30.10;;;31.60;50.20;;;;;;1702062;29;20543;-74
2022/03/26 09:41:35;;;;;;;34.17;30.70;;;30.90;50.80;;;;;;1701285;29;20282;-74
2022/03/26 09:42:27;;;;;;;33.00;29.33;;;30.30;51.20;;;;;;1701683;29;20877;-74
2022/03/26 09:43:18;;;;;;;34.10;29.90;;;29.80;51.90;;;;;;1702458;29;20835;-74
2022/03/26 09:44:13;;;;;;;32.80;29.30;;;29.40;52.40;;;;;;1702760;29;20474;-74
2022/03/26 09:45:06;;;;;;;34.53;29.37;;;28.90;52.90;;;;;;1702911;29;20450;-74
2022/03/26 09:45:58;;;;;;;31.23;27.50;;;28.50;53.40;;;;;;1703109;29;20450;-73
2022/03/26 09:46:49;;;;;;;31.67;28.27;;;28.20;54.20;;;;;;1703199;29;21118;-74
2022/03/26 09:47:41;;;;;;;32.93;29.43;;;27.90;54.60;;;;;;1702100;29;20865;-74
2022/03/26 09:48:31;;;;;;;32.17;28.63;;;27.60;54.90;;;;;;1701698;29;20498;-74
2022/03/26 09:49:23;;;;;;;32.43;28.00;;;27.40;55.40;;;;;;1703313;29;20454;-74
2022/03/26 09:50:15;;;;;;;34.07;27.50;;;27.20;55.90;;;;;;1700321;29;20231;-74
2022/03/26 09:51:09;;;;;;;32.20;27.13;;;27.00;56.50;;;;;;1702535;29;20466;-74
2022/03/26 09:52:05;;;;;;;31.37;27.23;;;26.90;57.20;;;;;;1702012;29;20506;-74
2022/03/26 09:52:58;;;;;;;32.37;28.60;;;26.70;58.00;;;;;;1702928;29;20481;-74
2022/03/26 09:53:51;;;;;;;33.13;29.57;;;26.60;58.20;;;;;;1701926;29;20885;-74
2022/03/26 09:54:42;;;;;;;32.77;29.27;;;26.50;58.10;;;;;;1702481;29;20467;-74
2022/03/26 09:55:34;;;;;;;33.10;29.60;;;26.40;58.00;;;;;;1701929;29;20510;-74
2022/03/26 09:56:28;;;;;;;31.60;27.80;;;26.30;58.10;;;;;;1701676;29;20199;-74
2022/03/26 09:57:19;;;;;;;34.30;30.53;;;26.20;58.20;;;;;;1704310;29;20482;-74
2022/03/26 09:58:12;;;;;;;34.93;30.17;;;26.10;58.00;;;;;;1702002;29;20444;-74
2022/03/26 09:59:05;;;;;;;37.03;32.08;;;26.00;57.90;;;;;;1703123;29;20202;-74
2022/03/26 09:59:57;;;;;;;32.35;28.35;;;25.80;57.80;;;;;;1701841;29;20585;-74
2022/03/26 10:00:49;;;;;;;33.72;29.67;;;25.70;58.00;;;;;;1701502;29;20228;-74
2022/03/26 10:01:40;;;;;;;32.28;28.88;;;25.60;58.50;;;;;;1702406;29;21894;-74
2022/03/26 10:02:31;;;;;;;33.80;28.60;;;25.50;58.60;;;;;;1702017;29;20641;-74
2022/03/26 10:03:22;;;;;;;33.03;29.45;;;25.40;58.70;;;;;;1702392;29;20211;-74
2022/03/26 10:04:16;;;;;;;34.17;29.90;;;25.40;59.00;;;;;;1703225;29;20777;-74
2022/03/26 10:05:08;;;;;;;31.53;28.10;;;25.30;59.00;;;;;;1702484;29;20483;-74
2022/03/26 10:06:03;;;;;;;32.93;28.27;;;25.30;59.00;;;;;;1703090;29;20469;-72
2022/03/26 10:06:57;;;;;;;36.58;28.95;;;25.20;59.10;;;;;;1702860;29;21011;-73
2022/03/26 10:07:50;;;;;;;34.47;28.42;;;25.20;59.50;;;;;;1702140;29;20195;-73
2022/03/26 10:08:42;;;;;;;37.15;29.63;;;25.20;59.40;;;;;;1701792;29;20214;-73
2022/03/26 10:09:35;;;;;;;37.30;30.95;;;25.10;59.60;;;;;;1701109;29;20640;-73
2022/03/26 10:10:27;;;;;;;32.97;28.65;;;25.10;59.50;;;;;;1702002;29;20601;-73
2022/03/26 10:11:21;;;;;;;33.57;29.93;;;25.00;59.60;;;;;;1704151;29;20207;-72
2022/03/26 10:12:16;;;;;;;38.92;29.98;;;25.00;59.60;;;;;;1701023;29;20483;-72
2022/03/26 10:13:07;;;;;;;39.53;30.88;;;25.00;59.60;;;;;;1702464;29;20266;-72
2022/03/26 10:13:59;;;;;;;32.10;28.70;;;25.00;59.40;;;;;;1702171;29;20231;-73
2022/03/26 10:14:52;;;;;;;32.67;29.17;;;24.90;59.60;;;;;;1702030;29;20238;-72
2022/03/26 10:16:02;;;;;;;33.17;28.20;;;24.90;59.80;;;;;;1702699;29;20206;-72
2022/03/26 10:16:53;;;;;;;32.53;29.02;;;24.80;60.10;;;;;;1703103;29;20700;-73
2022/03/26 10:17:46;;;;;;;34.40;28.80;;;24.80;60.00;;;;;;1702330;29;20218;-73
2022/03/26 10:18:38;;;;;;;36.17;29.60;;;24.80;60.00;;;;;;1702064;29;20207;-73
2022/03/26 10:19:30;;;;;;;33.95;30.25;;;24.80;59.90;;;;;;1701777;29;20314;-73
2022/03/26 10:20:22;;;;;;;31.35;27.95;;;24.80;59.70;;;;;;1701903;29;20706;-72
2022/03/26 10:21:14;;;;;;;32.92;28.50;;;24.70;59.80;;;;;;1701247;29;20199;-73
2022/03/26 10:22:12;;;;;;;37.20;31.25;;;24.70;59.90;;;;;;1702466;29;20245;-73
2022/03/26 10:23:04;;;;;;;35.50;31.80;;;24.70;60.30;;;;;;1703320;29;20235;-72
2022/03/26 10:23:56;;;;;;;35.78;31.05;;;24.70;60.00;;;;;;1702717;29;20349;-73